This is the latest recevied weather packets stored in our database for station/object N8SDR. If no packets are shown the sender has not sent any weather packets the latest 10 day(s).
| Time | Temp. | Humidity | Pressure | Rain* | Wind** | Luminosity | Snow |
|---|---|---|---|---|---|---|---|
| 1777989616 | 16.67° C | 88% | 1005.4 hPa | 0 mm | - | 365 W/m² | - |
| 1777989312 | 16.67° C | 91% | 1005 hPa | 0 mm | - | 324 W/m² | - |
| 1777989009 | 16.67° C | 93% | 1004.9 hPa | 0 mm | - | 344 W/m² | - |
| 1777988705 | 16.11° C | 93% | 1005 hPa | 0 mm | - | 340 W/m² | - |
| 1777988402 | 15.56° C | 95% | 1004.8 hPa | 0 mm | - | 293 W/m² | - |
| 1777988099 | 15.56° C | 96% | 1004.8 hPa | 0 mm | - | 291 W/m² | - |
| 1777987794 | 15° C | 99% | 1004.8 hPa | 0 mm | - | 265 W/m² | - |
| 1777987491 | 15° C | 99% | 1004.6 hPa | 0 mm | - | 180 W/m² | - |
| 1777987189 | 14.44° C | 99% | 1004.6 hPa | 0 mm | - | 170 W/m² | - |
| 1777986885 | 14.44° C | 99% | 1004.4 hPa | 0 mm | - | 147 W/m² | - |
| 1777986583 | 14.44° C | 99% | 1004.3 hPa | 0 mm | - | 102 W/m² | - |
| 1777986281 | 14.44° C | 99% | 1004.2 hPa | 0 mm | - | 79 W/m² | - |
| 1777985979 | 14.44° C | 99% | 1004.6 hPa | 0 mm | - | 61 W/m² | - |
| 1777985676 | 14.44° C | 99% | 1004.8 hPa | 0 mm | - | 69 W/m² | - |
| 1777985372 | 14.44° C | 99% | 1005 hPa | 0 mm | - | 100 W/m² | - |
| 1777985069 | 14.44° C | 99% | 1005 hPa | 0 mm | - | 126 W/m² | - |
| 1777984765 | 14.44° C | 99% | 1004.8 hPa | 0 mm | - | 81 W/m² | - |
| 1777984462 | 14.44° C | 99% | 1004.6 hPa | 0 mm | - | 55 W/m² | - |
| 1777984158 | 14.44° C | 99% | 1004.6 hPa | 0 mm | - | 55 W/m² | - |
| 1777983855 | 14.44° C | 99% | 1004.9 hPa | 0 mm | - | 65 W/m² | - |
| 1777983552 | 13.89° C | 99% | 1005 hPa | 0 mm | - | 67 W/m² | - |
| 1777983249 | 13.89° C | 99% | 1005.1 hPa | 0 mm | - | 47 W/m² | - |
| 1777982945 | 13.89° C | 99% | 1005.1 hPa | 0 mm | - | 46 W/m² | - |
| 1777982642 | 13.89° C | 99% | 1005.3 hPa | 0 mm | - | 49 W/m² | - |
| 1777982340 | 13.89° C | 99% | 1005.2 hPa | 0 mm | - | 40 W/m² | - |
* Rain latest hour (hover to see other rain measurements)
** Current wind speed in m/s (hover to see current wind gust speed)